sensor_id;sensor_type;location;lat;lon;timestamp;P1;durP1;ratioP1;P2;durP2;ratioP2
3280;SDS011;1652;51.318;6.202;2023-06-10T00:00:02;8.50;;;7.80;;
3280;SDS011;1652;51.318;6.202;2023-06-10T00:02:32;9.13;;;8.30;;
3280;SDS011;1652;51.318;6.202;2023-06-10T00:04:59;9.83;;;9.00;;
3280;SDS011;1652;51.318;6.202;2023-06-10T00:07:26;9.50;;;8.20;;
3280;SDS011;1652;51.318;6.202;2023-06-10T00:09:53;8.73;;;8.13;;
3280;SDS011;1652;51.318;6.202;2023-06-10T00:12:21;9.17;;;8.20;;
3280;SDS011;1652;51.318;6.202;2023-06-10T00:14:48;9.57;;;8.70;;
3280;SDS011;1652;51.318;6.202;2023-06-10T00:17:17;8.43;;;7.83;;
3280;SDS011;1652;51.318;6.202;2023-06-10T00:19:44;11.00;;;7.80;;
3280;SDS011;1652;51.318;6.202;2023-06-10T00:22:13;9.13;;;8.27;;
3280;SDS011;1652;51.318;6.202;2023-06-10T00:24:40;8.60;;;7.97;;
3280;SDS011;1652;51.318;6.202;2023-06-10T00:27:08;9.00;;;8.20;;
3280;SDS011;1652;51.318;6.202;2023-06-10T00:29:35;9.67;;;8.83;;
3280;SDS011;1652;51.318;6.202;2023-06-10T00:32:02;10.47;;;8.63;;
3280;SDS011;1652;51.318;6.202;2023-06-10T00:34:29;11.30;;;8.00;;
3280;SDS011;1652;51.318;6.202;2023-06-10T00:36:56;8.73;;;8.03;;
3280;SDS011;1652;51.318;6.202;2023-06-10T00:39:23;7.77;;;7.27;;
3280;SDS011;1652;51.318;6.202;2023-06-10T00:41:50;9.60;;;7.97;;
3280;SDS011;1652;51.318;6.202;2023-06-10T00:44:17;9.13;;;8.40;;
3280;SDS011;1652;51.318;6.202;2023-06-10T00:46:44;8.37;;;7.87;;
3280;SDS011;1652;51.318;6.202;2023-06-10T00:49:12;9.07;;;8.27;;
3280;SDS011;1652;51.318;6.202;2023-06-10T00:51:39;8.33;;;7.73;;
3280;SDS011;1652;51.318;6.202;2023-06-10T00:54:06;8.33;;;7.20;;
3280;SDS011;1652;51.318;6.202;2023-06-10T00:56:33;15.80;;;8.60;;
3280;SDS011;1652;51.318;6.202;2023-06-10T00:59:01;9.30;;;8.60;;
3280;SDS011;1652;51.318;6.202;2023-06-10T01:01:28;8.53;;;7.57;;
3280;SDS011;1652;51.318;6.202;2023-06-10T01:03:56;8.60;;;8.00;;
3280;SDS011;1652;51.318;6.202;2023-06-10T01:09:32;12.50;;;8.53;;
3280;SDS011;1652;51.318;6.202;2023-06-10T01:14:40;9.37;;;8.67;;
3280;SDS011;1652;51.318;6.202;2023-06-10T01:17:11;9.20;;;8.30;;
3280;SDS011;1652;51.318;6.202;2023-06-10T01:19:38;10.90;;;9.10;;
3280;SDS011;1652;51.318;6.202;2023-06-10T01:22:07;9.70;;;8.90;;
3280;SDS011;1652;51.318;6.202;2023-06-10T01:24:34;9.63;;;8.63;;
3280;SDS011;1652;51.318;6.202;2023-06-10T01:27:01;9.30;;;8.47;;
3280;SDS011;1652;51.318;6.202;2023-06-10T01:29:41;11.77;;;8.67;;
3280;SDS011;1652;51.318;6.202;2023-06-10T01:32:17;11.20;;;8.80;;
3280;SDS011;1652;51.318;6.202;2023-06-10T01:34:53;10.07;;;9.20;;
3280;SDS011;1652;51.318;6.202;2023-06-10T01:37:22;9.60;;;8.70;;
3280;SDS011;1652;51.318;6.202;2023-06-10T01:39:55;8.70;;;8.10;;
3280;SDS011;1652;51.318;6.202;2023-06-10T01:42:24;10.17;;;9.17;;
3280;SDS011;1652;51.318;6.202;2023-06-10T01:44:52;8.93;;;8.23;;
3280;SDS011;1652;51.318;6.202;2023-06-10T01:47:19;9.23;;;8.53;;
3280;SDS011;1652;51.318;6.202;2023-06-10T01:49:47;10.13;;;9.23;;
3280;SDS011;1652;51.318;6.202;2023-06-10T01:52:13;9.60;;;8.67;;
3280;SDS011;1652;51.318;6.202;2023-06-10T01:54:41;9.10;;;8.40;;
3280;SDS011;1652;51.318;6.202;2023-06-10T01:57:08;9.30;;;8.30;;
3280;SDS011;1652;51.318;6.202;2023-06-10T01:59:35;9.83;;;8.93;;
3280;SDS011;1652;51.318;6.202;2023-06-10T02:02:03;11.03;;;10.03;;
3280;SDS011;1652;51.318;6.202;2023-06-10T02:04:34;9.80;;;9.00;;
3280;SDS011;1652;51.318;6.202;2023-06-10T02:07:04;10.00;;;9.10;;
3280;SDS011;1652;51.318;6.202;2023-06-10T02:09:32;9.37;;;8.40;;
3280;SDS011;1652;51.318;6.202;2023-06-10T02:12:10;15.40;;;8.30;;
3280;SDS011;1652;51.318;6.202;2023-06-10T02:14:39;10.00;;;9.20;;
3280;SDS011;1652;51.318;6.202;2023-06-10T02:17:06;10.47;;;9.20;;
3280;SDS011;1652;51.318;6.202;2023-06-10T02:19:33;11.70;;;9.30;;
3280;SDS011;1652;51.318;6.202;2023-06-10T02:22:03;11.20;;;9.30;;
3280;SDS011;1652;51.318;6.202;2023-06-10T02:24:30;10.30;;;9.37;;
3280;SDS011;1652;51.318;6.202;2023-06-10T02:26:57;15.83;;;8.90;;
3280;SDS011;1652;51.318;6.202;2023-06-10T02:29:26;10.80;;;9.70;;
3280;SDS011;1652;51.318;6.202;2023-06-10T02:31:53;11.60;;;9.27;;
3280;SDS011;1652;51.318;6.202;2023-06-10T02:34:20;10.50;;;9.70;;
3280;SDS011;1652;51.318;6.202;2023-06-10T02:36:47;10.23;;;9.50;;
3280;SDS011;1652;51.318;6.202;2023-06-10T02:39:17;14.10;;;9.23;;
3280;SDS011;1652;51.318;6.202;2023-06-10T02:41:44;11.57;;;10.67;;
3280;SDS011;1652;51.318;6.202;2023-06-10T02:44:11;13.50;;;9.93;;
3280;SDS011;1652;51.318;6.202;2023-06-10T02:46:38;10.90;;;10.00;;
3280;SDS011;1652;51.318;6.202;2023-06-10T02:49:05;10.17;;;9.23;;
3280;SDS011;1652;51.318;6.202;2023-06-10T02:51:32;10.47;;;9.57;;
3280;SDS011;1652;51.318;6.202;2023-06-10T02:53:59;17.57;;;10.70;;
3280;SDS011;1652;51.318;6.202;2023-06-10T02:56:26;17.13;;;10.80;;
3280;SDS011;1652;51.318;6.202;2023-06-10T02:58:53;16.17;;;10.20;;
3280;SDS011;1652;51.318;6.202;2023-06-10T03:01:20;12.27;;;11.00;;
3280;SDS011;1652;51.318;6.202;2023-06-10T03:03:47;13.33;;;9.70;;
3280;SDS011;1652;51.318;6.202;2023-06-10T03:06:14;13.60;;;10.30;;
3280;SDS011;1652;51.318;6.202;2023-06-10T03:08:41;12.30;;;11.20;;
3280;SDS011;1652;51.318;6.202;2023-06-10T03:11:08;17.80;;;11.00;;
3280;SDS011;1652;51.318;6.202;2023-06-10T03:13:35;17.90;;;10.53;;
3280;SDS011;1652;51.318;6.202;2023-06-10T03:16:02;11.73;;;10.47;;
3280;SDS011;1652;51.318;6.202;2023-06-10T03:18:29;12.30;;;9.80;;
3280;SDS011;1652;51.318;6.202;2023-06-10T03:20:56;10.93;;;10.00;;
3280;SDS011;1652;51.318;6.202;2023-06-10T03:23:28;11.53;;;10.10;;
3280;SDS011;1652;51.318;6.202;2023-06-10T03:25:56;11.30;;;10.10;;
3280;SDS011;1652;51.318;6.202;2023-06-10T03:28:23;15.63;;;10.80;;
3280;SDS011;1652;51.318;6.202;2023-06-10T03:30:50;11.60;;;10.60;;
3280;SDS011;1652;51.318;6.202;2023-06-10T03:33:18;11.37;;;10.17;;
3280;SDS011;1652;51.318;6.202;2023-06-10T03:35:52;11.47;;;10.47;;
3280;SDS011;1652;51.318;6.202;2023-06-10T03:38:22;15.07;;;10.30;;
3280;SDS011;1652;51.318;6.202;2023-06-10T03:40:49;11.80;;;10.60;;
3280;SDS011;1652;51.318;6.202;2023-06-10T03:43:16;12.10;;;10.60;;
3280;SDS011;1652;51.318;6.202;2023-06-10T03:45:43;12.77;;;11.60;;
3280;SDS011;1652;51.318;6.202;2023-06-10T03:48:11;13.93;;;11.20;;
3280;SDS011;1652;51.318;6.202;2023-06-10T03:50:41;16.27;;;12.77;;
3280;SDS011;1652;51.318;6.202;2023-06-10T03:53:08;13.57;;;11.90;;
3280;SDS011;1652;51.318;6.202;2023-06-10T03:55:35;13.40;;;11.23;;
3280;SDS011;1652;51.318;6.202;2023-06-10T03:58:02;14.17;;;11.87;;
3280;SDS011;1652;51.318;6.202;2023-06-10T04:00:29;13.37;;;12.17;;
3280;SDS011;1652;51.318;6.202;2023-06-10T04:02:56;12.83;;;11.53;;
3280;SDS011;1652;51.318;6.202;2023-06-10T04:05:25;13.43;;;11.43;;
3280;SDS011;1652;51.318;6.202;2023-06-10T04:07:52;12.53;;;11.33;;
3280;SDS011;1652;51.318;6.202;2023-06-10T04:10:20;12.87;;;11.60;;
3280;SDS011;1652;51.318;6.202;2023-06-10T04:12:47;11.60;;;10.60;;
3280;SDS011;1652;51.318;6.202;2023-06-10T04:15:35;12.83;;;10.83;;
3280;SDS011;1652;51.318;6.202;2023-06-10T04:18:03;14.80;;;10.30;;
3280;SDS011;1652;51.318;6.202;2023-06-10T04:20:32;11.80;;;10.57;;
3280;SDS011;1652;51.318;6.202;2023-06-10T04:22:58;15.30;;;12.43;;
3280;SDS011;1652;51.318;6.202;2023-06-10T04:25:26;12.43;;;11.10;;
3280;SDS011;1652;51.318;6.202;2023-06-10T04:27:54;15.87;;;10.77;;
3280;SDS011;1652;51.318;6.202;2023-06-10T04:30:21;13.03;;;10.60;;
3280;SDS011;1652;51.318;6.202;2023-06-10T04:32:48;12.00;;;10.83;;
3280;SDS011;1652;51.318;6.202;2023-06-10T04:35:20;15.07;;;10.90;;
3280;SDS011;1652;51.318;6.202;2023-06-10T04:37:54;11.53;;;10.53;;
3280;SDS011;1652;51.318;6.202;2023-06-10T04:40:21;13.60;;;11.00;;
3280;SDS011;1652;51.318;6.202;2023-06-10T04:42:49;11.07;;;10.07;;
3280;SDS011;1652;51.318;6.202;2023-06-10T04:45:16;10.30;;;9.40;;
3280;SDS011;1652;51.318;6.202;2023-06-10T04:47:46;11.07;;;9.90;;
3280;SDS011;1652;51.318;6.202;2023-06-10T04:50:16;12.70;;;9.70;;
3280;SDS011;1652;51.318;6.202;2023-06-10T04:52:44;11.13;;;10.10;;
3280;SDS011;1652;51.318;6.202;2023-06-10T04:55:11;11.67;;;10.40;;
3280;SDS011;1652;51.318;6.202;2023-06-10T04:57:38;12.20;;;11.00;;
3280;SDS011;1652;51.318;6.202;2023-06-10T05:00:05;13.10;;;10.70;;
3280;SDS011;1652;51.318;6.202;2023-06-10T05:02:33;12.00;;;11.00;;
3280;SDS011;1652;51.318;6.202;2023-06-10T05:05:00;21.40;;;11.20;;
3280;SDS011;1652;51.318;6.202;2023-06-10T05:07:27;12.10;;;11.03;;
3280;SDS011;1652;51.318;6.202;2023-06-10T05:09:54;11.70;;;10.80;;
3280;SDS011;1652;51.318;6.202;2023-06-10T05:12:21;13.83;;;12.30;;
3280;SDS011;1652;51.318;6.202;2023-06-10T05:14:48;12.20;;;10.60;;
3280;SDS011;1652;51.318;6.202;2023-06-10T05:17:15;12.83;;;11.63;;
3280;SDS011;1652;51.318;6.202;2023-06-10T05:19:42;11.93;;;11.13;;
3280;SDS011;1652;51.318;6.202;2023-06-10T05:22:09;12.07;;;10.70;;
3280;SDS011;1652;51.318;6.202;2023-06-10T05:24:36;13.07;;;11.63;;
3280;SDS011;1652;51.318;6.202;2023-06-10T05:27:03;12.73;;;11.53;;
3280;SDS011;1652;51.318;6.202;2023-06-10T05:29:31;11.67;;;10.77;;
3280;SDS011;1652;51.318;6.202;2023-06-10T05:31:58;11.53;;;10.53;;
3280;SDS011;1652;51.318;6.202;2023-06-10T05:34:29;16.00;;;11.60;;
3280;SDS011;1652;51.318;6.202;2023-06-10T05:36:57;12.33;;;11.43;;
3280;SDS011;1652;51.318;6.202;2023-06-10T05:39:24;12.90;;;11.60;;
3280;SDS011;1652;51.318;6.202;2023-06-10T05:41:51;17.73;;;11.10;;
3280;SDS011;1652;51.318;6.202;2023-06-10T05:44:18;14.37;;;11.73;;
3280;SDS011;1652;51.318;6.202;2023-06-10T05:46:45;13.93;;;12.53;;
3280;SDS011;1652;51.318;6.202;2023-06-10T05:49:12;14.10;;;12.30;;
3280;SDS011;1652;51.318;6.202;2023-06-10T05:51:39;12.23;;;11.23;;
3280;SDS011;1652;51.318;6.202;2023-06-10T05:54:06;20.70;;;12.80;;
3280;SDS011;1652;51.318;6.202;2023-06-10T05:56:33;14.33;;;12.93;;
3280;SDS011;1652;51.318;6.202;2023-06-10T05:59:00;14.50;;;11.60;;
3280;SDS011;1652;51.318;6.202;2023-06-10T06:01:27;12.93;;;11.60;;
3280;SDS011;1652;51.318;6.202;2023-06-10T06:03:54;13.47;;;12.10;;
3280;SDS011;1652;51.318;6.202;2023-06-10T06:06:21;12.90;;;11.90;;
3280;SDS011;1652;51.318;6.202;2023-06-10T06:08:49;16.43;;;11.80;;
3280;SDS011;1652;51.318;6.202;2023-06-10T06:11:16;13.30;;;11.70;;
3280;SDS011;1652;51.318;6.202;2023-06-10T06:13:43;16.60;;;13.00;;
3280;SDS011;1652;51.318;6.202;2023-06-10T06:16:10;13.53;;;12.43;;
3280;SDS011;1652;51.318;6.202;2023-06-10T06:18:37;13.43;;;12.20;;
3280;SDS011;1652;51.318;6.202;2023-06-10T06:21:04;13.93;;;12.47;;
3280;SDS011;1652;51.318;6.202;2023-06-10T06:23:31;13.50;;;11.73;;
3280;SDS011;1652;51.318;6.202;2023-06-10T06:25:58;13.00;;;11.80;;
3280;SDS011;1652;51.318;6.202;2023-06-10T06:28:24;13.63;;;12.33;;
3280;SDS011;1652;51.318;6.202;2023-06-10T06:30:56;15.57;;;12.93;;
3280;SDS011;1652;51.318;6.202;2023-06-10T06:33:23;13.03;;;11.87;;
3280;SDS011;1652;51.318;6.202;2023-06-10T06:35:52;13.70;;;12.40;;
3280;SDS011;1652;51.318;6.202;2023-06-10T06:38:19;11.63;;;10.53;;
3280;SDS011;1652;51.318;6.202;2023-06-10T06:40:46;13.60;;;12.20;;
3280;SDS011;1652;51.318;6.202;2023-06-10T06:43:13;13.20;;;11.13;;
3280;SDS011;1652;51.318;6.202;2023-06-10T06:45:40;12.00;;;10.80;;
3280;SDS011;1652;51.318;6.202;2023-06-10T06:48:07;12.57;;;11.13;;
3280;SDS011;1652;51.318;6.202;2023-06-10T06:50:34;16.83;;;11.77;;
3280;SDS011;1652;51.318;6.202;2023-06-10T06:53:00;12.20;;;11.00;;
3280;SDS011;1652;51.318;6.202;2023-06-10T06:55:27;14.03;;;12.70;;
3280;SDS011;1652;51.318;6.202;2023-06-10T06:57:54;13.13;;;11.93;;
3280;SDS011;1652;51.318;6.202;2023-06-10T07:00:22;10.73;;;9.90;;
3280;SDS011;1652;51.318;6.202;2023-06-10T07:02:49;12.40;;;10.83;;
3280;SDS011;1652;51.318;6.202;2023-06-10T07:05:16;10.83;;;10.00;;
3280;SDS011;1652;51.318;6.202;2023-06-10T07:07:43;11.73;;;10.63;;
3280;SDS011;1652;51.318;6.202;2023-06-10T07:10:10;14.10;;;10.70;;
3280;SDS011;1652;51.318;6.202;2023-06-10T07:12:37;10.87;;;9.90;;
3280;SDS011;1652;51.318;6.202;2023-06-10T07:15:04;12.13;;;9.93;;
3280;SDS011;1652;51.318;6.202;2023-06-10T07:17:31;11.80;;;10.17;;
3280;SDS011;1652;51.318;6.202;2023-06-10T07:19:59;10.50;;;9.33;;
3280;SDS011;1652;51.318;6.202;2023-06-10T07:22:26;10.17;;;9.33;;
3280;SDS011;1652;51.318;6.202;2023-06-10T07:24:53;17.13;;;9.97;;
3280;SDS011;1652;51.318;6.202;2023-06-10T07:27:21;10.90;;;9.50;;
3280;SDS011;1652;51.318;6.202;2023-06-10T07:29:48;11.30;;;9.00;;
3280;SDS011;1652;51.318;6.202;2023-06-10T07:32:14;9.87;;;8.80;;
3280;SDS011;1652;51.318;6.202;2023-06-10T07:34:44;10.27;;;9.30;;
3280;SDS011;1652;51.318;6.202;2023-06-10T07:37:11;15.00;;;8.57;;
3280;SDS011;1652;51.318;6.202;2023-06-10T07:39:38;8.80;;;8.23;;
3280;SDS011;1652;51.318;6.202;2023-06-10T07:42:05;8.80;;;8.10;;
3280;SDS011;1652;51.318;6.202;2023-06-10T07:44:32;9.47;;;8.57;;
3280;SDS011;1652;51.318;6.202;2023-06-10T07:46:59;9.10;;;8.20;;
3280;SDS011;1652;51.318;6.202;2023-06-10T07:49:26;8.07;;;7.37;;
3280;SDS011;1652;51.318;6.202;2023-06-10T07:51:54;8.50;;;7.90;;
3280;SDS011;1652;51.318;6.202;2023-06-10T07:54:22;12.07;;;8.80;;
3280;SDS011;1652;51.318;6.202;2023-06-10T07:56:48;9.13;;;8.07;;
3280;SDS011;1652;51.318;6.202;2023-06-10T07:59:15;9.30;;;8.50;;
3280;SDS011;1652;51.318;6.202;2023-06-10T08:01:42;8.13;;;7.63;;
3280;SDS011;1652;51.318;6.202;2023-06-10T08:04:09;14.15;;;8.43;;
3280;SDS011;1652;51.318;6.202;2023-06-10T08:06:36;8.23;;;7.57;;
3280;SDS011;1652;51.318;6.202;2023-06-10T08:09:03;9.07;;;7.83;;
3280;SDS011;1652;51.318;6.202;2023-06-10T08:11:30;8.23;;;7.43;;
3280;SDS011;1652;51.318;6.202;2023-06-10T08:13:57;8.77;;;7.93;;
3280;SDS011;1652;51.318;6.202;2023-06-10T08:18:55;7.80;;;7.20;;
3280;SDS011;1652;51.318;6.202;2023-06-10T08:21:22;7.50;;;6.80;;
3280;SDS011;1652;51.318;6.202;2023-06-10T08:23:52;19.30;;;8.10;;
3280;SDS011;1652;51.318;6.202;2023-06-10T08:26:20;8.53;;;7.43;;
3280;SDS011;1652;51.318;6.202;2023-06-10T08:28:47;10.40;;;7.90;;
3280;SDS011;1652;51.318;6.202;2023-06-10T08:31:15;11.93;;;7.90;;
3280;SDS011;1652;51.318;6.202;2023-06-10T08:33:44;12.53;;;7.33;;
3280;SDS011;1652;51.318;6.202;2023-06-10T08:36:11;8.03;;;7.53;;
3280;SDS011;1652;51.318;6.202;2023-06-10T08:38:38;8.30;;;7.47;;
3280;SDS011;1652;51.318;6.202;2023-06-10T08:41:05;8.20;;;7.40;;
3280;SDS011;1652;51.318;6.202;2023-06-10T08:46:08;18.03;;;8.27;;
3280;SDS011;1652;51.318;6.202;2023-06-10T08:48:38;9.73;;;7.67;;
3280;SDS011;1652;51.318;6.202;2023-06-10T08:51:13;8.43;;;7.68;;
3280;SDS011;1652;51.318;6.202;2023-06-10T08:53:46;8.60;;;7.90;;
3280;SDS011;1652;51.318;6.202;2023-06-10T08:56:19;19.83;;;8.00;;
3280;SDS011;1652;51.318;6.202;2023-06-10T08:58:48;8.37;;;7.53;;
3280;SDS011;1652;51.318;6.202;2023-06-10T09:01:15;8.40;;;7.60;;
3280;SDS011;1652;51.318;6.202;2023-06-10T09:03:43;8.13;;;7.43;;
3280;SDS011;1652;51.318;6.202;2023-06-10T09:06:10;7.50;;;6.90;;
3280;SDS011;1652;51.318;6.202;2023-06-10T09:08:37;8.73;;;7.77;;
3280;SDS011;1652;51.318;6.202;2023-06-10T09:11:05;8.30;;;7.70;;
3280;SDS011;1652;51.318;6.202;2023-06-10T09:13:32;15.80;;;7.97;;
3280;SDS011;1652;51.318;6.202;2023-06-10T09:16:02;7.57;;;7.00;;
3280;SDS011;1652;51.318;6.202;2023-06-10T09:18:29;8.33;;;7.80;;
3280;SDS011;1652;51.318;6.202;2023-06-10T09:20:57;9.07;;;8.17;;
3280;SDS011;1652;51.318;6.202;2023-06-10T09:23:24;8.10;;;7.40;;
3280;SDS011;1652;51.318;6.202;2023-06-10T09:25:57;7.90;;;7.00;;
3280;SDS011;1652;51.318;6.202;2023-06-10T09:28:25;7.03;;;6.53;;
3280;SDS011;1652;51.318;6.202;2023-06-10T09:31:13;7.22;;;6.72;;
3280;SDS011;1652;51.318;6.202;2023-06-10T09:33:40;7.85;;;6.85;;
3280;SDS011;1652;51.318;6.202;2023-06-10T09:36:07;7.45;;;6.85;;
3280;SDS011;1652;51.318;6.202;2023-06-10T09:38:34;8.05;;;7.45;;
3280;SDS011;1652;51.318;6.202;2023-06-10T09:41:02;10.50;;;7.45;;
3280;SDS011;1652;51.318;6.202;2023-06-10T09:43:39;8.20;;;7.50;;
3280;SDS011;1652;51.318;6.202;2023-06-10T09:46:14;14.13;;;7.40;;
3280;SDS011;1652;51.318;6.202;2023-06-10T09:48:46;7.35;;;6.85;;
3280;SDS011;1652;51.318;6.202;2023-06-10T09:51:14;8.98;;;7.43;;
3280;SDS011;1652;51.318;6.202;2023-06-10T09:53:47;7.85;;;7.30;;
3280;SDS011;1652;51.318;6.202;2023-06-10T09:56:15;7.60;;;6.82;;
3280;SDS011;1652;51.318;6.202;2023-06-10T09:58:42;7.73;;;7.00;;
3280;SDS011;1652;51.318;6.202;2023-06-10T10:01:13;9.50;;;7.50;;
3280;SDS011;1652;51.318;6.202;2023-06-10T10:03:48;10.33;;;7.40;;
3280;SDS011;1652;51.318;6.202;2023-06-10T10:06:18;8.80;;;7.90;;
3280;SDS011;1652;51.318;6.202;2023-06-10T10:08:47;7.67;;;6.83;;
3280;SDS011;1652;51.318;6.202;2023-06-10T10:11:20;7.70;;;7.20;;
3280;SDS011;1652;51.318;6.202;2023-06-10T10:13:52;10.50;;;7.40;;
3280;SDS011;1652;51.318;6.202;2023-06-10T10:18:55;8.87;;;8.07;;
3280;SDS011;1652;51.318;6.202;2023-06-10T10:21:24;15.53;;;7.87;;
3280;SDS011;1652;51.318;6.202;2023-06-10T10:26:26;8.00;;;7.30;;
3280;SDS011;1652;51.318;6.202;2023-06-10T10:31:42;8.90;;;6.87;;
3280;SDS011;1652;51.318;6.202;2023-06-10T10:34:19;8.13;;;7.33;;
3280;SDS011;1652;51.318;6.202;2023-06-10T10:36:54;10.87;;;6.90;;
3280;SDS011;1652;51.318;6.202;2023-06-10T10:39:21;7.77;;;6.93;;
3280;SDS011;1652;51.318;6.202;2023-06-10T10:41:48;7.37;;;6.50;;
3280;SDS011;1652;51.318;6.202;2023-06-10T10:44:17;14.73;;;6.70;;
3280;SDS011;1652;51.318;6.202;2023-06-10T10:46:49;11.30;;;6.37;;
3280;SDS011;1652;51.318;6.202;2023-06-10T10:49:20;8.80;;;7.83;;
3280;SDS011;1652;51.318;6.202;2023-06-10T10:51:55;7.80;;;6.73;;
3280;SDS011;1652;51.318;6.202;2023-06-10T10:54:33;9.77;;;7.43;;
3280;SDS011;1652;51.318;6.202;2023-06-10T10:59:43;7.20;;;6.50;;
3280;SDS011;1652;51.318;6.202;2023-06-10T11:02:16;7.40;;;6.87;;
3280;SDS011;1652;51.318;6.202;2023-06-10T11:04:46;8.40;;;7.57;;
3280;SDS011;1652;51.318;6.202;2023-06-10T11:07:14;7.70;;;7.07;;
3280;SDS011;1652;51.318;6.202;2023-06-10T11:10:02;7.53;;;6.83;;
3280;SDS011;1652;51.318;6.202;2023-06-10T11:15:12;8.40;;;7.37;;
3280;SDS011;1652;51.318;6.202;2023-06-10T11:18:06;10.30;;;9.30;;
3280;SDS011;1652;51.318;6.202;2023-06-10T11:26:09;10.00;;;7.33;;
3280;SDS011;1652;51.318;6.202;2023-06-10T11:31:24;13.90;;;8.10;;
3280;SDS011;1652;51.318;6.202;2023-06-10T11:34:06;9.80;;;7.93;;
3280;SDS011;1652;51.318;6.202;2023-06-10T11:36:35;7.37;;;6.70;;
3280;SDS011;1652;51.318;6.202;2023-06-10T11:39:07;7.23;;;6.63;;
3280;SDS011;1652;51.318;6.202;2023-06-10T11:41:34;7.83;;;7.03;;
3280;SDS011;1652;51.318;6.202;2023-06-10T11:44:14;7.83;;;7.07;;
3280;SDS011;1652;51.318;6.202;2023-06-10T11:46:45;9.27;;;7.20;;
3280;SDS011;1652;51.318;6.202;2023-06-10T11:49:14;10.60;;;7.40;;
3280;SDS011;1652;51.318;6.202;2023-06-10T11:51:41;6.87;;;6.30;;
3280;SDS011;1652;51.318;6.202;2023-06-10T11:54:16;13.50;;;7.30;;
3280;SDS011;1652;51.318;6.202;2023-06-10T11:56:43;7.63;;;6.83;;
3280;SDS011;1652;51.318;6.202;2023-06-10T11:59:10;7.30;;;6.70;;
3280;SDS011;1652;51.318;6.202;2023-06-10T12:01:41;7.50;;;7.07;;
3280;SDS011;1652;51.318;6.202;2023-06-10T12:04:13;8.73;;;7.20;;
3280;SDS011;1652;51.318;6.202;2023-06-10T12:06:53;7.33;;;6.73;;
3280;SDS011;1652;51.318;6.202;2023-06-10T12:11:54;7.93;;;6.60;;
3280;SDS011;1652;51.318;6.202;2023-06-10T12:17:24;6.63;;;6.33;;
3280;SDS011;1652;51.318;6.202;2023-06-10T12:20:05;7.40;;;6.90;;
3280;SDS011;1652;51.318;6.202;2023-06-10T12:22:43;6.70;;;6.40;;
3280;SDS011;1652;51.318;6.202;2023-06-10T12:25:11;7.27;;;6.57;;
3280;SDS011;1652;51.318;6.202;2023-06-10T12:27:41;7.73;;;7.27;;
3280;SDS011;1652;51.318;6.202;2023-06-10T12:30:23;11.40;;;6.73;;
3280;SDS011;1652;51.318;6.202;2023-06-10T12:32:52;11.13;;;10.27;;
3280;SDS011;1652;51.318;6.202;2023-06-10T12:35:21;8.00;;;7.20;;
3280;SDS011;1652;51.318;6.202;2023-06-10T12:37:56;8.37;;;7.87;;
3280;SDS011;1652;51.318;6.202;2023-06-10T12:40:31;8.30;;;7.70;;
3280;SDS011;1652;51.318;6.202;2023-06-10T12:43:02;8.03;;;7.20;;
3280;SDS011;1652;51.318;6.202;2023-06-10T12:45:31;7.37;;;6.80;;
3280;SDS011;1652;51.318;6.202;2023-06-10T12:48:23;9.40;;;7.20;;
3280;SDS011;1652;51.318;6.202;2023-06-10T12:50:56;6.87;;;6.30;;
3280;SDS011;1652;51.318;6.202;2023-06-10T12:53:24;6.90;;;6.45;;
3280;SDS011;1652;51.318;6.202;2023-06-10T12:55:55;7.60;;;6.90;;
3280;SDS011;1652;51.318;6.202;2023-06-10T12:58:22;6.90;;;6.37;;
3280;SDS011;1652;51.318;6.202;2023-06-10T13:00:50;10.45;;;7.03;;
3280;SDS011;1652;51.318;6.202;2023-06-10T13:03:19;7.83;;;7.00;;
3280;SDS011;1652;51.318;6.202;2023-06-10T13:05:47;6.97;;;6.30;;
3280;SDS011;1652;51.318;6.202;2023-06-10T13:08:14;7.57;;;6.87;;
3280;SDS011;1652;51.318;6.202;2023-06-10T13:10:41;8.00;;;7.23;;
3280;SDS011;1652;51.318;6.202;2023-06-10T13:13:09;7.50;;;6.83;;
3280;SDS011;1652;51.318;6.202;2023-06-10T13:15:36;7.67;;;7.37;;
3280;SDS011;1652;51.318;6.202;2023-06-10T13:18:08;7.00;;;6.70;;
3280;SDS011;1652;51.318;6.202;2023-06-10T13:20:35;10.13;;;6.35;;
3280;SDS011;1652;51.318;6.202;2023-06-10T13:23:02;8.30;;;6.53;;
3280;SDS011;1652;51.318;6.202;2023-06-10T13:25:29;7.10;;;6.60;;
3280;SDS011;1652;51.318;6.202;2023-06-10T13:27:56;6.90;;;6.60;;
3280;SDS011;1652;51.318;6.202;2023-06-10T13:30:23;7.53;;;6.80;;
3280;SDS011;1652;51.318;6.202;2023-06-10T13:32:51;7.73;;;6.90;;
3280;SDS011;1652;51.318;6.202;2023-06-10T13:35:18;11.67;;;6.87;;
3280;SDS011;1652;51.318;6.202;2023-06-10T13:37:45;7.73;;;7.00;;
3280;SDS011;1652;51.318;6.202;2023-06-10T13:40:12;8.45;;;7.38;;
3280;SDS011;1652;51.318;6.202;2023-06-10T13:42:39;9.57;;;6.93;;
3280;SDS011;1652;51.318;6.202;2023-06-10T13:45:06;6.40;;;6.17;;
3280;SDS011;1652;51.318;6.202;2023-06-10T13:47:33;7.27;;;6.77;;
3280;SDS011;1652;51.318;6.202;2023-06-10T13:50:01;6.40;;;6.10;;
3280;SDS011;1652;51.318;6.202;2023-06-10T13:52:28;8.18;;;6.72;;
3280;SDS011;1652;51.318;6.202;2023-06-10T13:54:55;8.67;;;6.90;;
3280;SDS011;1652;51.318;6.202;2023-06-10T13:57:22;6.87;;;6.40;;
3280;SDS011;1652;51.318;6.202;2023-06-10T13:59:48;11.10;;;7.20;;
3280;SDS011;1652;51.318;6.202;2023-06-10T14:02:15;9.00;;;6.57;;
3280;SDS011;1652;51.318;6.202;2023-06-10T14:04:43;7.70;;;7.07;;
3280;SDS011;1652;51.318;6.202;2023-06-10T14:07:10;7.40;;;6.70;;
3280;SDS011;1652;51.318;6.202;2023-06-10T14:09:37;5.90;;;5.67;;
3280;SDS011;1652;51.318;6.202;2023-06-10T14:12:04;7.17;;;6.50;;
3280;SDS011;1652;51.318;6.202;2023-06-10T14:14:31;7.00;;;6.60;;
3280;SDS011;1652;51.318;6.202;2023-06-10T14:16:59;7.40;;;7.00;;
3280;SDS011;1652;51.318;6.202;2023-06-10T14:19:26;7.25;;;6.95;;
3280;SDS011;1652;51.318;6.202;2023-06-10T14:21:53;7.40;;;6.93;;
3280;SDS011;1652;51.318;6.202;2023-06-10T14:24:21;7.07;;;6.45;;
3280;SDS011;1652;51.318;6.202;2023-06-10T14:26:49;7.50;;;6.93;;
3280;SDS011;1652;51.318;6.202;2023-06-10T14:29:17;7.03;;;6.35;;
3280;SDS011;1652;51.318;6.202;2023-06-10T14:31:46;6.73;;;6.40;;
3280;SDS011;1652;51.318;6.202;2023-06-10T14:34:14;13.60;;;12.30;;
3280;SDS011;1652;51.318;6.202;2023-06-10T14:36:41;7.83;;;7.30;;
3280;SDS011;1652;51.318;6.202;2023-06-10T14:39:09;10.53;;;6.90;;
3280;SDS011;1652;51.318;6.202;2023-06-10T14:41:42;7.30;;;7.00;;
3280;SDS011;1652;51.318;6.202;2023-06-10T14:44:09;6.40;;;6.10;;
3280;SDS011;1652;51.318;6.202;2023-06-10T14:46:36;7.00;;;6.50;;
3280;SDS011;1652;51.318;6.202;2023-06-10T14:49:04;8.07;;;7.10;;
3280;SDS011;1652;51.318;6.202;2023-06-10T14:51:31;7.27;;;6.77;;
3280;SDS011;1652;51.318;6.202;2023-06-10T14:54:01;6.67;;;6.23;;
3280;SDS011;1652;51.318;6.202;2023-06-10T14:56:28;7.30;;;6.70;;
3280;SDS011;1652;51.318;6.202;2023-06-10T14:58:56;6.40;;;5.80;;
3280;SDS011;1652;51.318;6.202;2023-06-10T15:01:22;6.70;;;6.30;;
3280;SDS011;1652;51.318;6.202;2023-06-10T15:03:49;7.03;;;6.63;;
3280;SDS011;1652;51.318;6.202;2023-06-10T15:06:16;7.20;;;6.53;;
3280;SDS011;1652;51.318;6.202;2023-06-10T15:08:47;9.30;;;6.28;;
3280;SDS011;1652;51.318;6.202;2023-06-10T15:11:17;7.35;;;6.95;;
3280;SDS011;1652;51.318;6.202;2023-06-10T15:13:44;12.43;;;6.65;;
3280;SDS011;1652;51.318;6.202;2023-06-10T15:18:53;8.80;;;6.60;;
3280;SDS011;1652;51.318;6.202;2023-06-10T15:21:19;7.40;;;6.65;;
3280;SDS011;1652;51.318;6.202;2023-06-10T15:23:46;7.13;;;6.50;;
3280;SDS011;1652;51.318;6.202;2023-06-10T15:26:14;7.38;;;6.78;;
3280;SDS011;1652;51.318;6.202;2023-06-10T15:28:41;6.80;;;6.50;;
3280;SDS011;1652;51.318;6.202;2023-06-10T15:31:08;7.20;;;6.70;;
3280;SDS011;1652;51.318;6.202;2023-06-10T15:33:35;7.40;;;7.00;;
3280;SDS011;1652;51.318;6.202;2023-06-10T15:36:02;20.90;;;7.10;;
3280;SDS011;1652;51.318;6.202;2023-06-10T15:38:31;7.53;;;7.03;;
3280;SDS011;1652;51.318;6.202;2023-06-10T15:40:58;8.83;;;7.40;;
3280;SDS011;1652;51.318;6.202;2023-06-10T15:43:24;13.30;;;6.72;;
3280;SDS011;1652;51.318;6.202;2023-06-10T15:45:51;7.13;;;6.53;;
3280;SDS011;1652;51.318;6.202;2023-06-10T15:48:18;7.38;;;6.65;;
3280;SDS011;1652;51.318;6.202;2023-06-10T15:50:45;10.88;;;6.90;;
3280;SDS011;1652;51.318;6.202;2023-06-10T15:53:12;6.78;;;6.22;;